AirNav   TITAN Aviation Fuels
 
 542 users online  

1SC3 STOL-It Farm Airport
Fair Play, South Carolina, USA


FAA INFORMATION EFFECTIVE 03 NOVEMBER 2022

Location

FAA Identifier: 1SC3
Lat/Long: 34-33-10.2900N 083-02-29.4400W
34-33.171500N 083-02.490667W
34.5528583,-83.0415111
(estimated)
Elevation: 938 ft. / 286 m (estimated)
From city: 4 miles NW of FAIR PLAY, SC
Time zone: UTC -5 (UTC -4 during Daylight Saving Time)
Zip code: 29643

Airport Operations

Airport use: Private use. Permission required prior to landing
Activation date: 08/2021
Control tower: no
ARTCC: ATLANTA CENTER
FSS: ANDERSON FLIGHT SERVICE STATION
Attendance: 
Segmented circle: no

Airport Communications

CTAF: 122.9
WX ASOS at CEU (11 nm NE): 119.275 (864-653-8855)
WX AWOS-3 at TOC (13 nm W): 119.625 (706-297-7473)
WX AWOS-3PT at 18A (13 nm S): 118.625 (706-245-1097)
WX ASOS at AND (17 nm E): 120.675 (864-226-9522)

Nearby radio navigation aids

VOR radial/distance  VOR name  Freq  Var
ELWr302/15.0ELECTRIC CITY VORTAC108.6000E
ODFr124/15.3FOOTHILLS VOR/DME113.4000E
AHNr021/38.9ATHENS VOR/DME109.6000E

Airport Services

Runway Information

Runway 3/21

Dimensions: 1519 x 150 ft. / 463 x 46 m
Surface: turf
RUNWAY 3  RUNWAY 21
Latitude: 34-33.058167N34-33.284833N
Longitude: 083-02.555000W083-02.426333W
Elevation: 938.0 ft.938.0 ft.
Traffic pattern: leftleft

Airport Ownership and Management from official FAA records

Ownership: Privately-owned
Owner: KRISTIAN GRIEWAHN
675 TAYLOR MADE LANE
FAIR PLAY, SC 29643
Phone 727-249-6109
Manager: KRISTIAN GRIEWAHN
675 TAYLOR MADE LANE
FAIR PLAY, SC 29643
Phone 727-249-6109

Airport Operational Statistics

Aircraft based on the field: 3
Single engine airplanes: 2
Ultralights: 1
    

Instrument Procedures

There are no published instrument procedures at 1SC3.

Some nearby airports with instrument procedures:

KCEU - Oconee County Regional Airport (11 nm NE)
KTOC - Toccoa Airport-RG Letourneau Field (13 nm W)
18A - Franklin-Hart Airport (13 nm S)
KAND - Anderson Regional Airport (17 nm E)
KLQK - Pickens County Airport (23 nm NE)
 
Loc | Ops | Rwys | IFR | FBO | Links
Com | Nav | Svcs | Stats | Notes
Aerial photo
No photo
 
Airport distance calculator
Flying to STOL-It Farm Airport? Find the distance to fly.

From to 1SC3

Sunrise and sunset
Times for 27-Nov-2022
 Local
(UTC-5)
 Zulu
(UTC)
Morning civil twilight06:5111:51
Sunrise07:1812:18
Sunset17:2122:21
Evening civil twilight17:4922:49

Current date and time
Zulu (UTC)  27-Nov-2022 11:50:38
Local (UTC-5)  27-Nov-2022 06:50:38
 
METAR
KCEU 
10nm NE 
271130Z AUTO 04006KT 4SM VCTS RA BR OVC004 10/10 A2978 RMK AO2 PRESFR P0006 T01000100
KTOC 
13nm W 
271130Z AUTO 35004KT 2 1/2SM +RA BR OVC003 10/10 A2980 RMK AO2 VIS 1 3/4V4 P0025 T01000097
K18A 
13nm S 
271135Z AUTO 31006KT 5SM -RA BR OVC004 11/11 A2979 RMK AO2 P0013 T01130111
KAND 
16nm E 
271056Z AUTO 13005KT 9SM RA OVC004 13/12 A2981 RMK AO2 LTG DSNT SW CIG 003V008 SLP090 P0008 T01280122
TAF
KAND 
16nm E 
270953Z 2710/2806 07005KT 5SM -SHRA BR SCT004 OVC009 TEMPO 2710/2712 2SM SHRA OVC004 FM271200 09006KT 1SM SHRA BR VCTS OVC003CB WS020/19035KT FM271500 22007KT P6SM BKN007 FM271700 24012G24KT P6SM SCT110
NOTAMs
Click for the latest NOTAMs
NOTAMs are issued by the DoD/FAA and will open in a separate window not controlled by AirNav.

 

 
 

Would you like to see your business listed on this page?

 If your business provides an interesting product or service to pilots, flight crews, aircraft, or users of the STOL-It Farm Airport, you should consider listing it here.  To start the listing process, click on the button below
 
Add a business
 

Other Pages about STOL-It Farm Airport

Update a link
 
Copyright © AirNav, LLC. All rights reserved. Privacy Policy  Contact